PAL911 YMML-YSSY
Flight info
| Callsign | PAL911 |
|---|---|
| Flight time | 1h 14m |
| Altitude | 33000 |
| Route | DOSEL2/34 DOSEL Y59 RIVET |
| Aircraft | A320/M-SDE3FGHIRWY/LB1 |
Departure
| Time | 2026-04-25 03:48 |
|---|---|
| Airport | Melbourne Airport (YMML) |
Arrival
| Time | 2026-04-25 05:03 |
|---|---|
| Airport | Sydney Kingsford Smith International Airport (YSSY) |
| Time | Latitude | Longitude | Altitude | Speed | Heading |
|---|---|---|---|---|---|
| 2026-04-25 03:41 | -37.67443 | 144.84666 | 381 ft | 0 kts | 253° |
| 2026-04-25 03:42 | -37.67443 | 144.84662 | 381 ft | 2 kts | 253° |
| 2026-04-25 03:43 | -37.67449 | 144.84618 | 380 ft | 8 kts | 270° |
| 2026-04-25 03:43 | -37.67452 | 144.84561 | 365 ft | 9 kts | 258° |
| 2026-04-25 03:43 | -37.67464 | 144.84484 | 380 ft | 10 kts | 264° |
| 2026-04-25 03:43 | -37.67476 | 144.84389 | 376 ft | 7 kts | 259° |
| 2026-04-25 03:44 | -37.67511 | 144.84337 | 376 ft | 9 kts | 204° |
| 2026-04-25 03:44 | -37.67582 | 144.84343 | 374 ft | 13 kts | 172° |
| 2026-04-25 03:44 | -37.67690 | 144.84364 | 370 ft | 18 kts | 175° |
| 2026-04-25 03:44 | -37.67781 | 144.84368 | 370 ft | 9 kts | 190° |
| 2026-04-25 03:45 | -37.67847 | 144.84310 | 365 ft | 14 kts | 240° |
| 2026-04-25 03:45 | -37.67866 | 144.84165 | 359 ft | 18 kts | 260° |
| 2026-04-25 03:45 | -37.67871 | 144.84132 | 362 ft | 0 kts | 261° |
| 2026-04-25 03:46 | -37.67871 | 144.84131 | 362 ft | 1 kts | 261° |
| 2026-04-25 03:46 | -37.67878 | 144.84078 | 356 ft | 12 kts | 261° |
| 2026-04-25 03:46 | -37.67886 | 144.84013 | 362 ft | 7 kts | 262° |
| 2026-04-25 03:47 | -37.67870 | 144.83970 | 360 ft | 5 kts | 338° |
| 2026-04-25 03:47 | -37.67829 | 144.83960 | 360 ft | 6 kts | 349° |
| 2026-04-25 03:47 | -37.67828 | 144.83960 | 360 ft | 0 kts | 349° |
| 2026-04-25 03:47 | -37.67684 | 144.83931 | 363 ft | 54 kts | 353° |
| 2026-04-25 03:48 | -37.67101 | 144.83824 | 385 ft | 110 kts | 352° |
| 2026-04-25 03:48 | -37.66195 | 144.83656 | 411 ft | 152 kts | 352° |
| 2026-04-25 03:48 | -37.65136 | 144.83463 | 807 ft | 160 kts | 352° |
| 2026-04-25 03:48 | -37.64012 | 144.83233 | 1385 ft | 168 kts | 353° |
| 2026-04-25 03:49 | -37.62805 | 144.82990 | 1801 ft | 189 kts | 351° |
| 2026-04-25 03:49 | -37.61375 | 144.82713 | 2278 ft | 214 kts | 352° |
| 2026-04-25 03:49 | -37.59819 | 144.82445 | 2855 ft | 234 kts | 357° |
| 2026-04-25 03:49 | -37.58195 | 144.82844 | 3794 ft | 245 kts | 20° |
| 2026-04-25 03:50 | -37.56612 | 144.83795 | 4709 ft | 252 kts | 21° |
| 2026-04-25 03:50 | -37.55016 | 144.84762 | 5654 ft | 257 kts | 20° |
| 2026-04-25 03:50 | -37.53387 | 144.85753 | 6587 ft | 261 kts | 20° |
| 2026-04-25 03:50 | -37.51779 | 144.86732 | 7376 ft | 267 kts | 20° |
| 2026-04-25 03:51 | -37.50091 | 144.87756 | 8205 ft | 271 kts | 20° |
| 2026-04-25 03:51 | -37.48480 | 144.88733 | 8968 ft | 276 kts | 20° |
| 2026-04-25 03:51 | -37.46725 | 144.89797 | 9778 ft | 281 kts | 21° |
| 2026-04-25 03:51 | -37.44994 | 144.90905 | 10309 ft | 299 kts | 27° |
| 2026-04-25 03:52 | -37.43453 | 144.92375 | 10518 ft | 325 kts | 39° |
| 2026-04-25 03:52 | -37.42018 | 144.94507 | 10940 ft | 341 kts | 52° |
| 2026-04-25 03:52 | -37.40824 | 144.96720 | 11526 ft | 346 kts | 52° |
| 2026-04-25 03:52 | -37.39410 | 144.99261 | 12280 ft | 348 kts | 51° |
| 2026-04-25 03:53 | -37.38036 | 145.01692 | 12984 ft | 351 kts | 51° |
| 2026-04-25 03:53 | -37.37049 | 145.03426 | 13508 ft | 353 kts | 51° |
| 2026-04-25 03:53 | -37.35728 | 145.05744 | 14159 ft | 356 kts | 51° |
| 2026-04-25 03:53 | -37.34225 | 145.08377 | 14796 ft | 360 kts | 51° |
| 2026-04-25 03:54 | -37.32771 | 145.10946 | 15399 ft | 364 kts | 51° |
| 2026-04-25 03:54 | -37.31277 | 145.13581 | 15996 ft | 368 kts | 51° |
| 2026-04-25 03:54 | -37.29768 | 145.16234 | 16584 ft | 372 kts | 51° |
| 2026-04-25 03:54 | -37.28294 | 145.18824 | 17152 ft | 376 kts | 52° |
| 2026-04-25 03:55 | -37.26877 | 145.21319 | 17718 ft | 379 kts | 51° |
| 2026-04-25 03:55 | -37.25436 | 145.23846 | 18275 ft | 382 kts | 51° |
| 2026-04-25 03:55 | -37.23894 | 145.26555 | 18836 ft | 387 kts | 52° |
| 2026-04-25 03:55 | -37.22305 | 145.29349 | 19392 ft | 390 kts | 52° |
| 2026-04-25 03:56 | -37.20713 | 145.32145 | 19939 ft | 394 kts | 52° |
| 2026-04-25 03:56 | -37.19101 | 145.34971 | 20499 ft | 398 kts | 52° |
| 2026-04-25 03:56 | -37.17478 | 145.37818 | 21054 ft | 401 kts | 52° |
| 2026-04-25 03:56 | -37.15832 | 145.40700 | 21602 ft | 404 kts | 52° |
| 2026-04-25 03:57 | -37.14185 | 145.43578 | 22132 ft | 408 kts | 52° |
| 2026-04-25 03:57 | -37.12521 | 145.46484 | 22665 ft | 411 kts | 52° |
| 2026-04-25 03:57 | -37.10846 | 145.49402 | 23192 ft | 414 kts | 52° |
| 2026-04-25 03:57 | -37.09136 | 145.52376 | 23723 ft | 417 kts | 52° |
| 2026-04-25 03:58 | -37.07415 | 145.55370 | 24185 ft | 420 kts | 52° |
| 2026-04-25 03:58 | -37.05709 | 145.58341 | 24625 ft | 422 kts | 52° |
| 2026-04-25 03:58 | -37.03954 | 145.61396 | 25032 ft | 425 kts | 52° |
| 2026-04-25 03:58 | -37.02212 | 145.64420 | 25448 ft | 428 kts | 52° |
| 2026-04-25 03:59 | -37.00440 | 145.67494 | 25868 ft | 430 kts | 52° |
| 2026-04-25 03:59 | -36.98650 | 145.70595 | 26283 ft | 432 kts | 52° |
| 2026-04-25 03:59 | -36.96886 | 145.73647 | 26682 ft | 435 kts | 52° |
| 2026-04-25 03:59 | -36.95083 | 145.76766 | 27077 ft | 437 kts | 52° |
| 2026-04-25 04:00 | -36.93876 | 145.78853 | 27328 ft | 439 kts | 52° |
| 2026-04-25 04:00 | -36.91694 | 145.82621 | 27785 ft | 442 kts | 52° |
| 2026-04-25 04:00 | -36.90105 | 145.85360 | 28107 ft | 444 kts | 52° |
| 2026-04-25 04:00 | -36.88281 | 145.88497 | 28466 ft | 447 kts | 52° |
| 2026-04-25 04:01 | -36.86426 | 145.91678 | 28711 ft | 450 kts | 53° |
| 2026-04-25 04:01 | -36.84586 | 145.94837 | 29037 ft | 453 kts | 53° |
| 2026-04-25 04:01 | -36.82686 | 145.98108 | 29388 ft | 456 kts | 53° |
| 2026-04-25 04:01 | -36.81435 | 146.00267 | 29744 ft | 458 kts | 52° |
| 2026-04-25 04:02 | -36.78957 | 146.04534 | 30258 ft | 460 kts | 52° |
| 2026-04-25 04:02 | -36.77656 | 146.06765 | 30494 ft | 461 kts | 52° |
| 2026-04-25 04:02 | -36.75738 | 146.10047 | 30792 ft | 464 kts | 52° |
| 2026-04-25 04:02 | -36.73808 | 146.13348 | 31095 ft | 465 kts | 52° |
| 2026-04-25 04:03 | -36.71890 | 146.16625 | 31502 ft | 464 kts | 52° |
| 2026-04-25 04:03 | -36.69973 | 146.19899 | 31934 ft | 463 kts | 52° |
| 2026-04-25 04:03 | -36.68056 | 146.23171 | 32273 ft | 463 kts | 52° |
| 2026-04-25 04:03 | -36.66157 | 146.26407 | 32352 ft | 462 kts | 52° |
| 2026-04-25 04:04 | -36.62259 | 146.33033 | 32362 ft | 461 kts | 52° |
| 2026-04-25 04:04 | -36.58436 | 146.39510 | 32367 ft | 461 kts | 53° |
| 2026-04-25 04:05 | -36.54617 | 146.45981 | 32364 ft | 461 kts | 53° |
| 2026-04-25 04:05 | -36.50827 | 146.52406 | 32362 ft | 461 kts | 53° |
| 2026-04-25 04:06 | -36.46986 | 146.58903 | 32367 ft | 461 kts | 53° |
| 2026-04-25 04:06 | -36.43176 | 146.65318 | 32368 ft | 461 kts | 53° |
| 2026-04-25 04:07 | -36.39340 | 146.71770 | 32365 ft | 461 kts | 53° |
| 2026-04-25 04:07 | -36.35520 | 146.78189 | 32371 ft | 461 kts | 53° |
| 2026-04-25 04:08 | -36.31706 | 146.84587 | 32361 ft | 461 kts | 53° |
| 2026-04-25 04:08 | -36.27886 | 146.90977 | 32379 ft | 461 kts | 53° |
| 2026-04-25 04:09 | -36.23991 | 146.97481 | 32361 ft | 461 kts | 53° |
| 2026-04-25 04:09 | -36.20806 | 147.02786 | 32375 ft | 461 kts | 53° |
| 2026-04-25 04:10 | -36.16953 | 147.09187 | 32368 ft | 461 kts | 53° |
| 2026-04-25 04:10 | -36.13115 | 147.15553 | 32361 ft | 461 kts | 53° |
| 2026-04-25 04:11 | -36.07332 | 147.25138 | 32367 ft | 461 kts | 53° |
| 2026-04-25 04:12 | -36.03466 | 147.31530 | 32368 ft | 461 kts | 53° |
| 2026-04-25 04:12 | -35.99571 | 147.37963 | 32368 ft | 461 kts | 53° |
| 2026-04-25 04:13 | -35.95674 | 147.44387 | 32370 ft | 461 kts | 53° |
| 2026-04-25 04:13 | -35.91816 | 147.50715 | 32365 ft | 461 kts | 53° |
| 2026-04-25 04:14 | -35.88555 | 147.56064 | 32378 ft | 461 kts | 53° |
| 2026-04-25 04:14 | -35.84813 | 147.62339 | 32373 ft | 461 kts | 53° |
| 2026-04-25 04:15 | -35.80960 | 147.68575 | 32362 ft | 461 kts | 53° |
| 2026-04-25 04:15 | -35.77319 | 147.74430 | 32369 ft | 461 kts | 53° |
| 2026-04-25 04:16 | -35.73636 | 147.80675 | 32373 ft | 461 kts | 55° |
| 2026-04-25 04:16 | -35.69959 | 147.86678 | 32372 ft | 461 kts | 53° |
| 2026-04-25 04:17 | -35.66129 | 147.92658 | 32363 ft | 460 kts | 52° |
| 2026-04-25 04:17 | -35.62838 | 147.97895 | 32378 ft | 461 kts | 53° |
| 2026-04-25 04:18 | -35.58910 | 148.04286 | 32367 ft | 461 kts | 54° |
| 2026-04-25 04:18 | -35.55386 | 148.10027 | 32377 ft | 461 kts | 54° |
| 2026-04-25 04:19 | -35.51600 | 148.16163 | 32365 ft | 462 kts | 54° |
| 2026-04-25 04:19 | -35.47636 | 148.22535 | 32378 ft | 461 kts | 52° |
| 2026-04-25 04:20 | -35.43695 | 148.28763 | 32352 ft | 461 kts | 53° |
| 2026-04-25 04:20 | -35.40596 | 148.33882 | 32345 ft | 460 kts | 61° |
| 2026-04-25 04:21 | -35.37403 | 148.39819 | 32374 ft | 462 kts | 54° |
| 2026-04-25 04:21 | -35.33195 | 148.46051 | 32372 ft | 462 kts | 51° |
| 2026-04-25 04:22 | -35.29439 | 148.51587 | 32373 ft | 462 kts | 53° |
| 2026-04-25 04:22 | -35.25952 | 148.57052 | 32372 ft | 461 kts | 54° |
| 2026-04-25 04:23 | -35.22711 | 148.62296 | 32364 ft | 456 kts | 55° |
| 2026-04-25 04:23 | -35.20790 | 148.65406 | 32203 ft | 444 kts | 55° |
| 2026-04-25 04:23 | -35.18937 | 148.68382 | 31810 ft | 437 kts | 54° |
| 2026-04-25 04:23 | -35.17184 | 148.71401 | 31371 ft | 432 kts | 59° |
| 2026-04-25 04:24 | -35.15542 | 148.74531 | 30915 ft | 428 kts | 60° |
| 2026-04-25 04:24 | -35.13977 | 148.77594 | 30486 ft | 425 kts | 60° |
| 2026-04-25 04:24 | -35.12488 | 148.80526 | 29992 ft | 422 kts | 60° |
| 2026-04-25 04:24 | -35.11052 | 148.83361 | 29535 ft | 418 kts | 59° |
| 2026-04-25 04:25 | -35.09548 | 148.86345 | 28953 ft | 416 kts | 60° |
| 2026-04-25 04:25 | -35.08206 | 148.89043 | 27906 ft | 427 kts | 61° |
| 2026-04-25 04:25 | -35.06414 | 148.92669 | 26747 ft | 437 kts | 60° |
| 2026-04-25 04:25 | -35.05005 | 148.95421 | 26145 ft | 437 kts | 55° |
| 2026-04-25 04:26 | -35.03073 | 148.98225 | 25712 ft | 431 kts | 52° |
| 2026-04-25 04:26 | -35.01281 | 149.01208 | 25562 ft | 433 kts | 58° |
| 2026-04-25 04:26 | -34.99656 | 149.04254 | 25351 ft | 433 kts | 58° |
| 2026-04-25 04:26 | -34.98151 | 149.07196 | 25359 ft | 434 kts | 59° |
| 2026-04-25 04:27 | -34.96509 | 149.10491 | 25365 ft | 434 kts | 60° |
| 2026-04-25 04:27 | -34.94957 | 149.13636 | 25362 ft | 434 kts | 60° |
| 2026-04-25 04:27 | -34.93314 | 149.16948 | 25365 ft | 445 kts | 59° |
| 2026-04-25 04:27 | -34.91744 | 149.20076 | 25362 ft | 455 kts | 59° |
| 2026-04-25 04:28 | -34.90158 | 149.23201 | 25367 ft | 460 kts | 59° |
| 2026-04-25 04:28 | -34.88430 | 149.26579 | 25366 ft | 465 kts | 59° |
| 2026-04-25 04:28 | -34.86668 | 149.30012 | 25368 ft | 469 kts | 59° |
| 2026-04-25 04:28 | -34.84939 | 149.33386 | 25366 ft | 476 kts | 59° |
| 2026-04-25 04:29 | -34.83179 | 149.36826 | 25365 ft | 478 kts | 59° |
| 2026-04-25 04:29 | -34.81423 | 149.40262 | 25367 ft | 479 kts | 59° |
| 2026-04-25 04:29 | -34.79925 | 149.43193 | 25360 ft | 479 kts | 59° |
| 2026-04-25 04:29 | -34.78169 | 149.46640 | 25365 ft | 479 kts | 59° |
| 2026-04-25 04:30 | -34.76382 | 149.50131 | 25364 ft | 479 kts | 59° |
| 2026-04-25 04:30 | -34.74625 | 149.53551 | 25364 ft | 479 kts | 59° |
| 2026-04-25 04:30 | -34.72857 | 149.56978 | 25364 ft | 479 kts | 59° |
| 2026-04-25 04:30 | -34.71822 | 149.58980 | 25364 ft | 478 kts | 59° |
| 2026-04-25 04:31 | -34.69669 | 149.63215 | 25359 ft | 478 kts | 59° |
| 2026-04-25 04:31 | -34.68491 | 149.65527 | 25367 ft | 478 kts | 59° |
| 2026-04-25 04:31 | -34.66721 | 149.68961 | 25363 ft | 478 kts | 59° |
| 2026-04-25 04:31 | -34.64986 | 149.72301 | 25366 ft | 478 kts | 59° |
| 2026-04-25 04:32 | -34.63185 | 149.75764 | 25361 ft | 477 kts | 59° |
| 2026-04-25 04:32 | -34.61389 | 149.79218 | 25363 ft | 477 kts | 59° |
| 2026-04-25 04:32 | -34.59624 | 149.82620 | 25361 ft | 477 kts | 59° |
| 2026-04-25 04:32 | -34.57854 | 149.86031 | 25362 ft | 477 kts | 59° |
| 2026-04-25 04:33 | -34.56090 | 149.89431 | 25359 ft | 477 kts | 58° |
| 2026-04-25 04:33 | -34.54321 | 149.92842 | 25361 ft | 477 kts | 59° |
| 2026-04-25 04:33 | -34.52516 | 149.96332 | 25360 ft | 477 kts | 59° |
| 2026-04-25 04:33 | -34.50761 | 149.99716 | 25237 ft | 474 kts | 59° |
| 2026-04-25 04:34 | -34.48988 | 150.03118 | 24803 ft | 460 kts | 59° |
| 2026-04-25 04:34 | -34.47242 | 150.06449 | 24675 ft | 440 kts | 59° |
| 2026-04-25 04:34 | -34.45638 | 150.09511 | 24564 ft | 423 kts | 59° |
| 2026-04-25 04:34 | -34.44089 | 150.12471 | 24442 ft | 408 kts | 59° |
| 2026-04-25 04:35 | -34.42580 | 150.15357 | 24333 ft | 395 kts | 59° |
| 2026-04-25 04:35 | -34.41128 | 150.18135 | 24216 ft | 385 kts | 59° |
| 2026-04-25 04:35 | -34.39715 | 150.20835 | 24015 ft | 377 kts | 59° |
| 2026-04-25 04:35 | -34.38316 | 150.23506 | 23645 ft | 373 kts | 59° |
| 2026-04-25 04:36 | -34.36939 | 150.26137 | 23214 ft | 370 kts | 59° |
| 2026-04-25 04:36 | -34.35522 | 150.28842 | 22757 ft | 367 kts | 59° |
| 2026-04-25 04:36 | -34.34160 | 150.31437 | 22312 ft | 365 kts | 59° |
| 2026-04-25 04:36 | -34.32805 | 150.34017 | 21879 ft | 362 kts | 59° |
| 2026-04-25 04:37 | -34.31455 | 150.36589 | 21439 ft | 360 kts | 59° |
| 2026-04-25 04:37 | -34.30124 | 150.39129 | 21005 ft | 358 kts | 59° |
| 2026-04-25 04:37 | -34.28863 | 150.41533 | 20173 ft | 368 kts | 59° |
| 2026-04-25 04:37 | -34.27693 | 150.43789 | 19579 ft | 372 kts | 60° |
| 2026-04-25 04:38 | -34.26398 | 150.46498 | 19069 ft | 371 kts | 62° |
| 2026-04-25 04:38 | -34.25176 | 150.49227 | 18489 ft | 365 kts | 63° |
| 2026-04-25 04:38 | -34.23997 | 150.51940 | 17507 ft | 361 kts | 64° |
| 2026-04-25 04:38 | -34.22812 | 150.54677 | 16571 ft | 357 kts | 63° |
| 2026-04-25 04:39 | -34.21654 | 150.57326 | 15691 ft | 353 kts | 63° |
| 2026-04-25 04:39 | -34.20538 | 150.59853 | 14850 ft | 349 kts | 62° |
| 2026-04-25 04:39 | -34.19305 | 150.62625 | 13928 ft | 346 kts | 62° |
| 2026-04-25 04:39 | -34.18159 | 150.65185 | 13011 ft | 342 kts | 62° |
| 2026-04-25 04:40 | -34.17414 | 150.66840 | 12437 ft | 339 kts | 62° |
| 2026-04-25 04:40 | -34.16294 | 150.69327 | 11587 ft | 335 kts | 62° |
| 2026-04-25 04:40 | -34.14859 | 150.72507 | 10717 ft | 325 kts | 62° |
| 2026-04-25 04:40 | -34.14121 | 150.74141 | 10497 ft | 312 kts | 62° |
| 2026-04-25 04:41 | -34.13173 | 150.76241 | 10239 ft | 296 kts | 62° |
| 2026-04-25 04:41 | -34.12183 | 150.78390 | 10000 ft | 288 kts | 58° |
| 2026-04-25 04:41 | -34.10834 | 150.80124 | 9569 ft | 286 kts | 37° |
| 2026-04-25 04:41 | -34.09176 | 150.81481 | 8928 ft | 285 kts | 33° |
| 2026-04-25 04:42 | -34.07633 | 150.82675 | 8362 ft | 282 kts | 33° |
| 2026-04-25 04:42 | -34.06002 | 150.83936 | 8053 ft | 280 kts | 33° |
| 2026-04-25 04:42 | -34.04353 | 150.85211 | 7993 ft | 282 kts | 33° |
| 2026-04-25 04:42 | -34.02764 | 150.86438 | 7972 ft | 282 kts | 33° |
| 2026-04-25 04:43 | -34.01112 | 150.87715 | 7670 ft | 280 kts | 33° |
| 2026-04-25 04:43 | -33.99452 | 150.89002 | 7331 ft | 279 kts | 33° |
| 2026-04-25 04:43 | -33.98001 | 150.90132 | 7057 ft | 278 kts | 33° |
| 2026-04-25 04:43 | -33.96431 | 150.91358 | 6763 ft | 277 kts | 32° |
| 2026-04-25 04:44 | -33.94817 | 150.92627 | 6432 ft | 276 kts | 33° |
| 2026-04-25 04:44 | -33.93379 | 150.93761 | 6165 ft | 274 kts | 33° |
| 2026-04-25 04:44 | -33.91808 | 150.95005 | 6000 ft | 271 kts | 33° |
| 2026-04-25 04:44 | -33.90203 | 150.96270 | 6002 ft | 272 kts | 33° |
| 2026-04-25 04:45 | -33.88711 | 150.97443 | 5912 ft | 271 kts | 33° |
| 2026-04-25 04:45 | -33.87264 | 150.98580 | 5629 ft | 269 kts | 33° |
| 2026-04-25 04:45 | -33.85693 | 150.99812 | 5328 ft | 268 kts | 33° |
| 2026-04-25 04:45 | -33.84298 | 151.00906 | 5064 ft | 266 kts | 33° |
| 2026-04-25 04:46 | -33.82728 | 151.02138 | 4741 ft | 264 kts | 33° |
| 2026-04-25 04:46 | -33.81861 | 151.02815 | 4585 ft | 263 kts | 32° |
| 2026-04-25 04:46 | -33.79659 | 151.03792 | 4200 ft | 260 kts | 6° |
| 2026-04-25 04:46 | -33.77902 | 151.03947 | 3889 ft | 260 kts | 3° |
| 2026-04-25 04:47 | -33.76628 | 151.04027 | 3686 ft | 259 kts | 3° |
| 2026-04-25 04:47 | -33.74446 | 151.04147 | 3342 ft | 257 kts | 3° |
| 2026-04-25 04:47 | -33.72640 | 151.04241 | 3073 ft | 256 kts | 3° |
| 2026-04-25 04:47 | -33.70913 | 151.04666 | 2987 ft | 254 kts | 27° |
| 2026-04-25 04:48 | -33.69579 | 151.06037 | 3000 ft | 256 kts | 56° |
| 2026-04-25 04:48 | -33.68949 | 151.08050 | 3000 ft | 258 kts | 79° |
| 2026-04-25 04:48 | -33.68771 | 151.09471 | 3003 ft | 260 kts | 82° |
| 2026-04-25 04:48 | -33.68610 | 151.12361 | 2995 ft | 260 kts | 98° |
| 2026-04-25 04:49 | -33.69300 | 151.14368 | 3003 ft | 264 kts | 126° |
| 2026-04-25 04:49 | -33.70454 | 151.15945 | 2994 ft | 264 kts | 133° |
| 2026-04-25 04:49 | -33.71741 | 151.17566 | 2996 ft | 265 kts | 135° |
| 2026-04-25 04:49 | -33.73272 | 151.18775 | 2994 ft | 266 kts | 162° |
| 2026-04-25 04:50 | -33.75100 | 151.19005 | 3010 ft | 268 kts | 184° |
| 2026-04-25 04:50 | -33.76894 | 151.18760 | 3001 ft | 256 kts | 193° |
| 2026-04-25 04:50 | -33.78576 | 151.18163 | 3002 ft | 242 kts | 199° |
| 2026-04-25 04:50 | -33.80104 | 151.17378 | 3002 ft | 237 kts | 217° |
| 2026-04-25 04:51 | -33.81126 | 151.15863 | 3021 ft | 235 kts | 250° |
| 2026-04-25 04:51 | -33.81381 | 151.13955 | 3013 ft | 234 kts | 270° |
| 2026-04-25 04:51 | -33.81374 | 151.11969 | 3008 ft | 231 kts | 272° |
| 2026-04-25 04:51 | -33.81341 | 151.10105 | 3003 ft | 217 kts | 273° |
| 2026-04-25 04:52 | -33.81320 | 151.08931 | 2998 ft | 208 kts | 273° |
| 2026-04-25 04:52 | -33.81291 | 151.07341 | 3001 ft | 197 kts | 272° |
| 2026-04-25 04:52 | -33.81269 | 151.06160 | 3006 ft | 194 kts | 273° |
| 2026-04-25 04:52 | -33.81242 | 151.04549 | 3009 ft | 192 kts | 272° |
| 2026-04-25 04:53 | -33.81229 | 151.03803 | 3045 ft | 193 kts | 272° |
| 2026-04-25 04:53 | -33.81185 | 151.02940 | 3035 ft | 191 kts | 279° |
| 2026-04-25 04:53 | -33.81160 | 151.02718 | 3030 ft | 190 kts | 282° |
| 2026-04-25 04:53 | -33.80977 | 151.02056 | 3029 ft | 186 kts | 298° |
| 2026-04-25 04:54 | -33.80874 | 151.01807 | 3045 ft | 186 kts | 298° |
| 2026-04-25 04:54 | -33.80041 | 151.00592 | 3191 ft | 190 kts | 329° |
| 2026-04-25 04:54 | -33.78824 | 151.00091 | 3125 ft | 188 kts | 350° |
| 2026-04-25 04:54 | -33.77528 | 150.99835 | 3042 ft | 183 kts | 352° |
| 2026-04-25 04:55 | -33.76292 | 150.99617 | 3012 ft | 175 kts | 353° |
| 2026-04-25 04:55 | -33.75101 | 150.99406 | 3006 ft | 173 kts | 354° |
| 2026-04-25 04:55 | -33.73928 | 150.99607 | 2990 ft | 171 kts | 32° |
| 2026-04-25 04:55 | -33.73199 | 151.00720 | 3007 ft | 172 kts | 71° |
| 2026-04-25 04:56 | -33.72958 | 151.02132 | 3004 ft | 173 kts | 81° |
| 2026-04-25 04:56 | -33.72815 | 151.03572 | 3000 ft | 173 kts | 82° |
| 2026-04-25 04:56 | -33.72686 | 151.05008 | 3001 ft | 174 kts | 83° |
| 2026-04-25 04:56 | -33.72558 | 151.06459 | 3004 ft | 175 kts | 83° |
| 2026-04-25 04:57 | -33.72432 | 151.07905 | 3004 ft | 174 kts | 83° |
| 2026-04-25 04:57 | -33.72307 | 151.09353 | 2999 ft | 174 kts | 83° |
| 2026-04-25 04:57 | -33.72243 | 151.10852 | 3003 ft | 176 kts | 98° |
| 2026-04-25 04:57 | -33.72800 | 151.12156 | 3021 ft | 180 kts | 130° |
| 2026-04-25 04:58 | -33.73903 | 151.12762 | 2989 ft | 173 kts | 185° |
| 2026-04-25 04:58 | -33.75065 | 151.12554 | 3002 ft | 167 kts | 180° |
| 2026-04-25 04:58 | -33.76186 | 151.12850 | 3013 ft | 165 kts | 165° |
| 2026-04-25 04:58 | -33.77315 | 151.13136 | 3003 ft | 166 kts | 168° |
| 2026-04-25 04:59 | -33.78449 | 151.13418 | 2863 ft | 165 kts | 168° |
| 2026-04-25 04:59 | -33.79588 | 151.13707 | 2668 ft | 165 kts | 167° |
| 2026-04-25 04:59 | -33.80719 | 151.13998 | 2464 ft | 164 kts | 167° |
| 2026-04-25 04:59 | -33.81736 | 151.14261 | 2267 ft | 163 kts | 167° |
| 2026-04-25 05:00 | -33.82839 | 151.14545 | 2058 ft | 163 kts | 167° |
| 2026-04-25 05:00 | -33.83952 | 151.14833 | 1860 ft | 160 kts | 165° |
| 2026-04-25 05:00 | -33.85007 | 151.15106 | 1641 ft | 160 kts | 165° |
| 2026-04-25 05:00 | -33.86126 | 151.15396 | 1416 ft | 160 kts | 164° |
| 2026-04-25 05:01 | -33.87193 | 151.15671 | 1202 ft | 151 kts | 164° |
| 2026-04-25 05:01 | -33.88203 | 151.15932 | 998 ft | 146 kts | 162° |
| 2026-04-25 05:01 | -33.89188 | 151.16187 | 813 ft | 145 kts | 164° |
| 2026-04-25 05:01 | -33.90176 | 151.16443 | 625 ft | 144 kts | 163° |
| 2026-04-25 05:02 | -33.91162 | 151.16699 | 436 ft | 141 kts | 164° |
| 2026-04-25 05:02 | -33.92100 | 151.16942 | 247 ft | 141 kts | 163° |
| 2026-04-25 05:02 | -33.93076 | 151.17194 | 68 ft | 139 kts | 162° |
| 2026-04-25 05:02 | -33.93811 | 151.17390 | 17 ft | 76 kts | 169° |
| 2026-04-25 05:03 | -33.94251 | 151.17499 | 25 ft | 52 kts | 167° |
| 2026-04-25 05:03 | -33.94471 | 151.17559 | 24 ft | 17 kts | 167° |
| 2026-04-25 05:03 | -33.94527 | 151.17604 | 25 ft | 13 kts | 114° |
| 2026-04-25 05:03 | -33.94534 | 151.17654 | 24 ft | 0 kts | 89° |
| 2026-04-25 05:05 | -33.94534 | 151.17656 | 24 ft | 2 kts | 88° |
| 2026-04-25 05:05 | -33.94525 | 151.17679 | 25 ft | 5 kts | 49° |
| 2026-04-25 05:05 | -33.94496 | 151.17692 | 24 ft | 6 kts | 21° |
| 2026-04-25 05:05 | -33.94450 | 151.17712 | 26 ft | 9 kts | 17° |
| 2026-04-25 05:06 | -33.94409 | 151.17727 | 25 ft | 11 kts | 17° |
| 2026-04-25 05:06 | -33.94370 | 151.17741 | 23 ft | 9 kts | 17° |
| 2026-04-25 05:06 | -33.94308 | 151.17728 | 22 ft | 12 kts | 344° |
| 2026-04-25 05:06 | -33.94205 | 151.17696 | 21 ft | 16 kts | 346° |
| 2026-04-25 05:07 | -33.94091 | 151.17663 | 22 ft | 15 kts | 347° |
| 2026-04-25 05:07 | -33.93982 | 151.17636 | 20 ft | 19 kts | 350° |
| 2026-04-25 05:07 | -33.93932 | 151.17619 | 19 ft | 0 kts | 335° |
| 2026-04-25 05:08 | -33.93925 | 151.17617 | 19 ft | 5 kts | 346° |
| 2026-04-25 05:08 | -33.93874 | 151.17602 | 19 ft | 9 kts | 345° |
| 2026-04-25 05:08 | -33.93783 | 151.17581 | 19 ft | 13 kts | 349° |
| 2026-04-25 05:08 | -33.93719 | 151.17567 | 18 ft | 16 kts | 350° |
| 2026-04-25 05:09 | -33.93666 | 151.17587 | 22 ft | 1 kts | 57° |
| 2026-04-25 05:09 | -33.93666 | 151.17588 | 22 ft | 0 kts | 57° |
| 2026-04-25 05:09 | -33.93665 | 151.17589 | 22 ft | 2 kts | 57° |
| 2026-04-25 05:09 | -33.93663 | 151.17593 | 25 ft | 0 kts | 58° |
| 2026-04-25 05:10 | -33.93662 | 151.17596 | 24 ft | 2 kts | 59° |
| 2026-04-25 05:10 | -33.93658 | 151.17604 | 24 ft | 0 kts | 61° |
| 2026-04-25 05:10 | -33.93656 | 151.17612 | 26 ft | 3 kts | 71° |
| 2026-04-25 05:10 | -33.93654 | 151.17622 | 28 ft | 0 kts | 76° |
| 2026-04-25 05:11 | -33.93654 | 151.17649 | 30 ft | 9 kts | 93° |
| 2026-04-25 05:11 | -33.93659 | 151.17702 | 30 ft | 6 kts | 92° |
| 2026-04-25 05:11 | -33.93644 | 151.17757 | 30 ft | 6 kts | 66° |
| 2026-04-25 05:12 | -33.93577 | 151.17819 | 31 ft | 7 kts | 330° |
| 2026-04-25 05:12 | -33.93567 | 151.17778 | 30 ft | 1 kts | 283° |
| 2026-04-25 05:12 | -33.93564 | 151.17763 | 30 ft | 4 kts | 283° |
| 2026-04-25 05:12 | -33.93563 | 151.17758 | 30 ft | 0 kts | 279° |